Time;durP1;ratioP1;P1;durP2;ratioP2;P2;SDS_P1;SDS_P2;PMS_P1;PMS_P2;Temp;Humidity;BMP_temperature;BMP_pressure;BME280_temperature;BME280_humidity;BME280_pressure;Samples;Min_cycle;Max_cycle;Signal;HPM_P1;HPM_P2
2021/12/26 00:00:16;;;;;;;17.73;7.90;;;;;;;-8.02;92.01;99824.59;5050575;28;20029;-71
2021/12/26 00:02:42;;;;;;;16.33;8.35;;;;;;;-8.01;92.03;99811.88;5050028;28;20413;-71
2021/12/26 00:05:08;;;;;;;18.85;8.52;;;;;;;-8.00;91.72;99820.38;5048943;28;20035;-69
2021/12/26 00:07:33;;;;;;;13.82;7.65;;;;;;;-8.04;91.82;99816.97;5046035;28;20060;-66
2021/12/26 00:09:59;;;;;;;23.35;8.85;;;;;;;-8.12;91.96;99816.97;5051196;28;20029;-67
2021/12/26 00:12:24;;;;;;;13.85;8.23;;;;;;;-8.11;92.19;99811.03;5047674;28;20509;-70
2021/12/26 00:14:49;;;;;;;18.70;9.82;;;;;;;-8.09;91.84;99814.41;5057870;28;20074;-70
2021/12/26 00:17:15;;;;;;;14.52;7.60;;;;;;;-8.09;91.88;99814.41;5060506;28;20136;-68
2021/12/26 00:19:41;;;;;;;19.17;9.27;;;;;;;-8.09;91.64;99814.41;5052440;28;20083;-68
2021/12/26 00:22:06;;;;;;;20.13;8.80;;;;;;;-8.09;91.27;99811.03;5047453;28;20666;-71
2021/12/26 00:24:31;;;;;;;18.60;7.50;;;;;;;-8.09;91.59;99813.56;5046552;28;20067;-69
2021/12/26 00:26:57;;;;;;;20.38;8.88;;;;;;;-8.13;91.83;99820.34;5050224;28;20016;-67
2021/12/26 00:29:22;;;;;;;14.25;7.57;;;;;;;-8.21;91.52;99808.47;5058652;28;20167;-71
2021/12/26 00:31:48;;;;;;;18.95;8.35;;;;;;;-8.22;91.84;99807.63;5056948;28;20058;-68
2021/12/26 00:34:13;;;;;;;15.30;8.02;;;;;;;-8.26;92.08;99811.03;5053923;28;20044;-70
2021/12/26 00:36:38;;;;;;;17.08;8.25;;;;;;;-8.24;92.02;99803.38;5055488;28;20025;-67
2021/12/26 00:39:05;;;;;;;12.98;6.85;;;;;;;-8.29;91.51;99806.78;5059677;28;20615;-67
2021/12/26 00:41:30;;;;;;;14.77;7.47;;;;;;;-8.31;91.85;99811.00;5054810;28;20033;-66
2021/12/26 00:43:55;;;;;;;20.77;9.18;;;;;;;-8.34;92.05;99807.63;5064217;28;20035;-68
2021/12/26 00:46:21;;;;;;;24.42;9.82;;;;;;;-8.37;92.06;99802.56;5050104;28;20412;-68
2021/12/26 00:48:47;;;;;;;12.07;7.20;;;;;;;-8.42;92.32;99807.63;5049444;28;20017;-70
2021/12/26 00:51:12;;;;;;;24.95;8.57;;;;;;;-8.46;92.47;99802.53;5051622;28;20553;-68
2021/12/26 00:53:38;;;;;;;17.33;7.78;;;;;;;-8.54;92.30;99810.16;5054681;28;20037;-71
2021/12/26 00:56:04;;;;;;;15.27;8.00;;;;;;;-8.58;92.70;99804.22;5047913;28;20048;-70
2021/12/26 00:58:29;;;;;;;15.80;7.93;;;;;;;-8.57;92.81;99810.13;5045252;28;20119;-69
2021/12/26 01:00:55;;;;;;;15.65;8.20;;;;;;;-8.65;92.45;99810.13;5043630;28;20489;-70
2021/12/26 01:03:22;;;;;;;19.08;8.43;;;;;;;-8.65;93.19;99807.56;5048840;28;20027;-70
2021/12/26 01:05:53;;;;;;;15.57;8.30;;;;;;;-8.65;93.00;99806.72;5031985;28;20036;-70
2021/12/26 01:08:24;;;;;;;18.23;8.30;;;;;;;-8.65;93.22;99809.28;5027496;28;20037;-70
2021/12/26 01:10:56;;;;;;;16.20;8.57;;;;;;;-8.67;93.25;99804.19;5034649;28;20457;-69
2021/12/26 01:13:40;;;;;;;19.75;7.95;;;;;;;-8.70;92.73;99800.81;5038259;28;20525;-70
2021/12/26 01:16:09;;;;;;;19.60;8.48;;;;;;;-8.68;92.93;99799.94;5017168;28;20170;-66
2021/12/26 01:18:36;;;;;;;;;;;;;;;-8.72;92.44;99798.22;5022795;28;20026;-69
2021/12/26 01:21:16;;;;;;;17.67;9.63;;;;;;;-8.81;92.53;99800.75;5050456;28;19952;-70
2021/12/26 01:23:43;;;;;;;19.65;7.88;;;;;;;-8.84;92.24;99806.66;5077112;22;20052;-66
2021/12/26 01:26:08;;;;;;;17.95;8.18;;;;;;;-8.78;92.11;99809.25;5051888;28;20064;-65
2021/12/26 01:28:34;;;;;;;15.90;7.68;;;;;;;-8.78;91.91;99813.47;5042174;28;20053;-66
2021/12/26 01:30:59;;;;;;;22.77;8.40;;;;;;;-8.86;91.85;99817.66;5031142;28;20053;-65
2021/12/26 01:33:26;;;;;;;14.85;7.50;;;;;;;-8.93;91.86;99810.88;5017390;28;20121;-67
2021/12/26 01:35:51;;;;;;;15.18;7.35;;;;;;;-8.93;91.45;99810.88;5030738;28;20029;-66
2021/12/26 01:38:18;;;;;;;16.77;8.20;;;;;;;-8.98;91.36;99813.38;5013087;28;20036;-62
2021/12/26 01:40:48;;;;;;;19.13;8.73;;;;;;;-9.05;90.92;99815.06;5031512;28;20045;-65
2021/12/26 01:43:14;;;;;;;17.73;8.57;;;;;;;-9.13;91.28;99811.63;5029585;28;20052;-66
2021/12/26 01:45:41;;;;;;;21.25;8.73;;;;;;;-9.15;91.27;99815.03;5031123;28;20113;-64
2021/12/26 01:48:07;;;;;;;19.63;8.75;;;;;;;-9.17;91.71;99816.69;5031261;28;20029;-67
2021/12/26 01:50:35;;;;;;;21.42;8.98;;;;;;;-9.17;91.25;99816.69;5030383;28;20057;-67
2021/12/26 01:53:00;;;;;;;18.27;9.05;;;;;;;-9.22;91.50;99811.59;5033446;28;20086;-66
2021/12/26 01:55:38;;;;;;;18.90;9.30;;;;;;;-9.22;90.93;99811.59;5008261;28;20042;-67
2021/12/26 01:58:06;;;;;;;19.88;9.23;;;;;;;-9.25;91.30;99806.50;5038564;28;20033;-67
2021/12/26 02:00:32;;;;;;;20.05;8.65;;;;;;;-9.24;91.31;99805.66;5051800;28;20099;-64
2021/12/26 02:02:58;;;;;;;21.25;9.88;;;;;;;-9.29;91.20;99802.25;5013695;28;20060;-66
2021/12/26 02:05:23;;;;;;;17.95;9.52;;;;;;;-9.31;91.44;99804.75;5027534;28;20353;-66
2021/12/26 02:07:49;;;;;;;19.20;9.00;;;;;;;-9.34;91.42;99802.22;5038135;28;20664;-66
2021/12/26 02:10:15;;;;;;;25.17;10.77;;;;;;;-9.38;90.91;99797.97;5017428;28;20095;-65
2021/12/26 02:12:41;;;;;;;19.05;8.43;;;;;;;-9.34;91.96;99794.63;5037568;28;20100;-64
2021/12/26 02:15:07;;;;;;;16.40;8.60;;;;;;;-9.27;90.04;99800.53;5018997;28;20020;-66
2021/12/26 02:17:33;;;;;;;16.38;7.93;;;;;;;-9.31;88.73;99798.84;5040012;28;20067;-68
2021/12/26 02:20:16;;;;;;;18.13;7.65;;;;;;;-9.43;87.97;99802.16;5035720;28;20467;-66
2021/12/26 02:22:46;;;;;;;13.65;7.18;;;;;;;-9.53;88.05;99803.81;5033512;28;20040;-63
2021/12/26 02:27:31;;;;;;;11.75;6.70;;;;;;;-9.63;87.63;99804.59;5033411;28;20376;-63
2021/12/26 02:27:57;;;;;;;13.18;6.70;;;;;;;-9.79;87.66;99806.16;5027861;28;20700;-66
2021/12/26 02:30:23;;;;;;;15.15;7.30;;;;;;;-9.84;87.76;99797.66;5033443;28;20098;-66
2021/12/26 02:32:51;;;;;;;15.63;6.97;;;;;;;-9.95;87.46;99795.88;5040410;28;20094;-65
2021/12/26 02:35:18;;;;;;;13.27;7.20;;;;;;;-10.05;88.24;99802.56;5029285;28;20116;-67
2021/12/26 02:37:43;;;;;;;15.50;7.80;;;;;;;-10.13;88.08;99809.25;5033258;28;20549;-65
2021/12/26 02:40:09;;;;;;;21.00;7.45;;;;;;;-10.18;87.66;99800.78;5038873;28;20044;-65
2021/12/26 02:42:35;;;;;;;13.57;6.65;;;;;;;-10.27;88.19;99810.03;5036057;28;20061;-64
2021/12/26 02:45:00;;;;;;;14.93;7.45;;;;;;;-10.28;88.67;99794.81;5021864;28;20049;-67
2021/12/26 02:47:39;;;;;;;15.55;6.85;;;;;;;-10.38;88.49;99793.88;5018691;28;20515;-65
2021/12/26 02:50:09;;;;;;;19.10;8.05;;;;;;;-10.39;89.53;99796.38;5038815;28;20406;-66
2021/12/26 02:52:35;;;;;;;22.45;9.18;;;;;;;-10.38;89.53;99798.94;5044752;28;20045;-66
2021/12/26 02:55:00;;;;;;;18.98;8.00;;;;;;;-10.38;89.95;99795.53;5032564;28;20499;-65
2021/12/26 02:57:28;;;;;;;17.70;8.48;;;;;;;-10.34;90.12;99794.75;5032710;28;20080;-65
2021/12/26 02:59:54;;;;;;;22.85;9.43;;;;;;;-10.38;89.31;99793.00;5029452;28;20029;-67
2021/12/26 03:02:19;;;;;;;18.35;8.75;;;;;;;-10.44;89.57;99798.03;5028517;28;20087;-64
2021/12/26 03:04:45;;;;;;;22.35;9.60;;;;;;;-10.45;89.65;99798.88;5038651;28;20430;-65
2021/12/26 03:07:10;;;;;;;21.55;8.73;;;;;;;-10.53;89.31;99806.38;5036412;28;20079;-65
2021/12/26 03:09:45;;;;;;;21.13;8.88;;;;;;;-10.59;89.31;99802.13;5035127;28;20364;-66
2021/12/26 03:12:11;;;;;;;20.75;8.68;;;;;;;-10.59;89.76;99802.13;5039167;28;20029;-65
2021/12/26 03:14:38;;;;;;;18.17;7.22;;;;;;;-10.57;89.77;99807.19;5042885;28;20057;-66
2021/12/26 03:17:04;;;;;;;24.08;9.10;;;;;;;-10.59;90.05;99807.19;5016938;28;20033;-65
2021/12/26 03:19:34;;;;;;;21.48;9.77;;;;;;;-10.63;89.37;99802.91;5021979;28;20029;-63
2021/12/26 03:22:00;;;;;;;18.52;7.80;;;;;;;-10.70;90.12;99800.31;5030835;28;20037;-64
2021/12/26 03:24:26;;;;;;;17.20;7.28;;;;;;;-10.71;89.89;99807.06;5017982;28;20044;-65
2021/12/26 03:27:01;;;;;;;17.58;8.63;;;;;;;-10.74;89.69;99805.34;5031260;28;20052;-66
2021/12/26 03:29:26;;;;;;;18.85;7.50;;;;;;;-10.68;89.29;99809.59;5040367;28;20067;-65
2021/12/26 03:31:52;;;;;;;25.48;10.13;;;;;;;-10.79;88.69;99801.91;5038893;28;20715;-66
2021/12/26 03:34:17;;;;;;;14.50;7.55;;;;;;;-10.87;88.59;99805.16;5034551;28;20071;-66
2021/12/26 03:36:42;;;;;;;18.33;9.35;;;;;;;-10.92;89.48;99801.75;5038817;28;20459;-67
2021/12/26 03:39:08;;;;;;;35.58;13.27;;;;;;;-10.94;89.34;99811.00;5035682;28;20029;-67
2021/12/26 03:41:33;;;;;;;21.83;10.80;;;;;;;-11.06;89.02;99802.41;5007660;28;20045;-67
2021/12/26 03:43:59;;;;;;;20.65;9.32;;;;;;;-11.06;90.05;99804.94;5035274;28;20117;-63
2021/12/26 03:46:24;;;;;;;18.52;9.57;;;;;;;-10.97;90.76;99806.75;5036667;28;20033;-65
2021/12/26 03:48:49;;;;;;;20.90;9.43;;;;;;;-11.03;90.68;99799.94;5033392;28;20021;-64
2021/12/26 03:51:15;;;;;;;17.55;9.20;;;;;;;-10.99;90.65;99804.19;5041308;28;20058;-64
2021/12/26 03:53:40;;;;;;;18.98;9.48;;;;;;;-10.98;90.99;99798.28;5040047;28;20040;-64
2021/12/26 03:56:05;;;;;;;23.83;9.05;;;;;;;-10.97;91.19;99801.69;5032551;28;20037;-65
2021/12/26 03:58:31;;;;;;;14.52;7.65;;;;;;;-11.04;91.10;99805.00;5022927;28;20025;-67
2021/12/26 04:00:56;;;;;;;16.67;8.68;;;;;;;-11.06;91.03;99807.47;5042818;28;20047;-64
2021/12/26 04:03:23;;;;;;;17.17;8.85;;;;;;;-11.06;91.31;99801.56;5036501;28;20102;-65
2021/12/26 04:05:49;;;;;;;16.42;8.18;;;;;;;-11.04;91.17;99789.81;5038208;28;20033;-65
2021/12/26 04:08:14;;;;;;;15.57;7.78;;;;;;;-10.98;91.13;99799.97;5043376;28;20100;-65
2021/12/26 04:10:40;;;;;;;18.85;8.63;;;;;;;-11.01;90.36;99795.75;5033855;28;20040;-64
2021/12/26 04:13:06;;;;;;;19.75;9.48;;;;;;;-10.97;91.19;99791.56;5028542;28;20491;-65
2021/12/26 04:15:32;;;;;;;23.80;10.15;;;;;;;-10.94;90.54;99809.31;5017456;28;20032;-67
2021/12/26 04:17:58;;;;;;;21.67;10.43;;;;;;;-10.99;90.40;99805.88;5034281;28;20029;-62
2021/12/26 04:20:26;;;;;;;20.17;9.05;;;;;;;-11.04;90.22;99799.94;5018664;28;20517;-67
2021/12/26 04:22:52;;;;;;;20.75;9.55;;;;;;;-11.06;90.61;99801.56;5036317;28;20112;-66
2021/12/26 04:25:19;;;;;;;19.17;9.40;;;;;;;-11.10;90.59;99808.28;5042077;28;20479;-64
2021/12/26 04:27:44;;;;;;;16.67;8.50;;;;;;;-11.10;90.42;99810.81;5043798;28;20021;-65
2021/12/26 04:30:12;;;;;;;17.65;9.27;;;;;;;-11.07;90.27;99804.94;5040551;28;20572;-66
2021/12/26 04:32:38;;;;;;;20.95;8.63;;;;;;;-11.04;89.57;99798.25;5035459;28;20084;-62
2021/12/26 04:35:05;;;;;;;22.13;10.68;;;;;;;-11.02;90.09;99799.09;5015867;28;20029;-65
2021/12/26 04:37:31;;;;;;;16.10;8.18;;;;;;;-11.05;89.68;99806.66;5037978;28;20044;-64
2021/12/26 04:39:56;;;;;;;25.02;9.57;;;;;;;-11.05;89.88;99800.72;5045301;28;20112;-65
2021/12/26 04:42:22;;;;;;;16.73;8.90;;;;;;;-11.07;90.23;99799.88;5039361;28;20028;-66
2021/12/26 04:44:49;;;;;;;17.55;8.30;;;;;;;-11.09;90.68;99794.78;5016847;28;20044;-63
2021/12/26 04:47:15;;;;;;;16.20;8.18;;;;;;;-11.10;90.94;99793.09;5039741;28;20866;-66
2021/12/26 04:49:40;;;;;;;17.05;8.20;;;;;;;-11.14;91.03;99788.81;5037532;28;20057;-66
2021/12/26 04:52:06;;;;;;;20.00;9.05;;;;;;;-11.17;90.92;99788.78;5042089;28;20029;-66
2021/12/26 04:54:31;;;;;;;20.13;9.25;;;;;;;-11.17;90.34;99796.38;5039501;28;20022;-66
2021/12/26 04:56:56;;;;;;;16.95;7.95;;;;;;;-11.17;90.33;99795.53;5036991;28;20047;-67
2021/12/26 04:59:22;;;;;;;21.65;8.38;;;;;;;-11.08;90.79;99793.97;5040642;28;20033;-65
2021/12/26 05:01:47;;;;;;;19.67;9.05;;;;;;;-11.10;90.18;99788.03;5021006;28;20037;-64
2021/12/26 05:04:13;;;;;;;19.15;7.80;;;;;;;-11.06;90.23;99792.28;5021996;28;20029;-65
2021/12/26 05:06:38;;;;;;;23.48;9.75;;;;;;;-11.07;90.05;99797.34;5035022;28;20548;-65
2021/12/26 05:09:04;;;;;;;21.77;10.40;;;;;;;-11.09;89.59;99799.00;5017750;28;20017;-65
2021/12/26 05:11:30;;;;;;;18.17;8.18;;;;;;;-11.10;89.39;99790.56;5032524;28;20076;-64
2021/12/26 05:13:55;;;;;;;20.23;9.52;;;;;;;-11.08;89.16;99786.38;5042451;28;20489;-64
2021/12/26 05:16:20;;;;;;;23.10;9.70;;;;;;;-11.03;89.12;99794.03;5011496;28;20075;-65
2021/12/26 05:18:46;;;;;;;17.50;9.35;;;;;;;-11.00;89.10;99794.06;5040871;28;20499;-65
2021/12/26 05:21:11;;;;;;;20.85;8.60;;;;;;;-10.97;87.84;99794.94;5023712;28;20016;-66
2021/12/26 05:23:36;;;;;;;24.95;9.50;;;;;;;-10.98;87.44;99794.91;5039172;28;20136;-63
2021/12/26 05:26:02;;;;;;;18.00;7.72;;;;;;;-11.04;87.57;99789.81;5028035;28;20030;-67
2021/12/26 05:28:27;;;;;;;21.92;9.88;;;;;;;-11.09;87.96;99789.72;5021211;28;20025;-67
2021/12/26 05:30:53;;;;;;;18.80;8.60;;;;;;;-11.10;88.23;99789.72;5040014;28;20029;-66
2021/12/26 05:33:18;;;;;;;20.90;10.50;;;;;;;-11.12;89.23;99788.84;5036409;28;20479;-66
2021/12/26 05:35:43;;;;;;;23.63;10.35;;;;;;;-11.11;88.37;99788.88;5040370;28;20526;-66
2021/12/26 05:38:09;;;;;;;18.90;9.45;;;;;;;-11.11;88.52;99793.94;5042941;28;20407;-66
2021/12/26 05:40:34;;;;;;;18.58;8.77;;;;;;;-11.15;88.58;99782.06;5040829;28;20040;-65
2021/12/26 05:43:00;;;;;;;17.63;8.93;;;;;;;-11.21;88.16;99787.06;5021528;28;20029;-65
2021/12/26 05:45:25;;;;;;;21.05;9.25;;;;;;;-11.20;88.61;99788.75;5030444;28;20363;-64
2021/12/26 05:47:50;;;;;;;19.10;9.05;;;;;;;-11.17;88.79;99790.47;5036249;28;20100;-64
2021/12/26 05:50:20;;;;;;;19.02;9.45;;;;;;;-11.22;89.39;99791.25;5023800;28;20029;-65
2021/12/26 05:52:45;;;;;;;19.00;8.68;;;;;;;-11.21;89.34;99797.16;5041682;28;20153;-64
2021/12/26 05:55:11;;;;;;;18.42;9.40;;;;;;;-11.19;89.35;99794.69;5032750;28;20171;-65
2021/12/26 05:57:37;;;;;;;19.33;9.27;;;;;;;-11.21;89.57;99794.63;5015874;28;20033;-66
2021/12/26 06:00:08;;;;;;;17.20;8.77;;;;;;;-11.21;89.06;99789.56;5030579;28;20036;-66
2021/12/26 06:02:34;;;;;;;15.57;8.13;;;;;;;-11.25;88.86;99791.22;5032100;28;20176;-66
2021/12/26 06:04:59;;;;;;;18.50;8.80;;;;;;;-11.28;88.98;99785.28;5005549;28;20129;-67
2021/12/26 06:07:24;;;;;;;18.90;8.93;;;;;;;-11.34;89.06;99788.59;5040777;28;20040;-66
2021/12/26 06:09:49;;;;;;;18.98;9.30;;;;;;;-11.36;88.91;99777.59;5035667;28;20025;-67
2021/12/26 06:12:16;;;;;;;22.25;9.93;;;;;;;-11.39;89.53;99786.81;5024734;28;20028;-64
2021/12/26 06:14:41;;;;;;;24.08;9.80;;;;;;;-11.43;90.22;99785.06;5031198;28;20336;-65
2021/12/26 06:17:07;;;;;;;23.27;11.05;;;;;;;-11.48;90.77;99793.44;5037124;28;20112;-66
2021/12/26 06:19:32;;;;;;;17.50;9.43;;;;;;;-11.49;90.80;99778.28;5038722;28;20044;-64
2021/12/26 06:21:57;;;;;;;22.45;10.93;;;;;;;-11.51;91.17;99780.75;5016525;28;20037;-63
2021/12/26 06:24:23;;;;;;;23.80;10.68;;;;;;;-11.49;91.42;99789.25;5038213;28;20398;-64
2021/12/26 06:26:48;;;;;;;19.58;10.05;;;;;;;-11.52;92.21;99775.69;5014638;28;20507;-67
2021/12/26 06:29:13;;;;;;;19.75;11.07;;;;;;;-11.46;92.96;99775.75;5031699;28;20041;-65
2021/12/26 06:31:39;;;;;;;25.08;12.88;;;;;;;-11.47;92.28;99776.59;5035745;28;20042;-65
2021/12/26 06:34:05;;;;;;;25.48;12.45;;;;;;;-11.47;92.44;99774.91;5036771;28;20040;-63
2021/12/26 06:36:30;;;;;;;24.17;12.95;;;;;;;-11.52;92.34;99775.69;5032181;28;20056;-66
2021/12/26 06:38:56;;;;;;;26.40;12.75;;;;;;;-11.50;92.08;99776.56;5036135;28;20038;-66
2021/12/26 06:41:22;;;;;;;25.58;11.57;;;;;;;-11.47;92.22;99781.66;5032320;28;20033;-65
2021/12/26 06:43:47;;;;;;;20.55;10.50;;;;;;;-11.42;92.45;99786.75;5031621;28;20133;-68
2021/12/26 06:46:15;;;;;;;31.00;12.00;;;;;;;-11.43;92.43;99783.38;5030996;28;20129;-65
2021/12/26 06:48:41;;;;;;;25.77;12.30;;;;;;;-11.43;92.63;99788.44;5029467;28;20490;-67
2021/12/26 06:51:07;;;;;;;24.45;11.60;;;;;;;-11.35;92.31;99791.06;5033479;28;20479;-64
2021/12/26 06:53:33;;;;;;;27.58;13.48;;;;;;;-11.36;92.13;99795.28;5023979;28;20033;-66
2021/12/26 06:55:58;;;;;;;26.65;12.40;;;;;;;-11.38;92.39;99793.56;5029713;28;20037;-66
2021/12/26 06:58:23;;;;;;;31.67;13.13;;;;;;;-11.39;92.45;99800.31;5025998;28;20053;-65
2021/12/26 07:00:49;;;;;;;30.70;14.35;;;;;;;-11.41;92.46;99796.94;5040722;28;20033;-66
2021/12/26 07:03:15;;;;;;;27.15;13.05;;;;;;;-11.46;92.11;99796.88;5030518;28;20025;-65
2021/12/26 07:05:40;;;;;;;28.15;13.07;;;;;;;-11.48;92.46;99792.63;5019717;28;20087;-68
2021/12/26 07:08:07;;;;;;;25.13;12.95;;;;;;;-11.51;92.57;99800.16;5036366;28;20025;-64
2021/12/26 07:10:33;;;;;;;25.10;12.23;;;;;;;-11.49;93.46;99801.88;5032944;28;20029;-64
2021/12/26 07:12:59;;;;;;;25.20;12.18;;;;;;;-11.39;93.68;99800.31;5016727;28;20041;-65
2021/12/26 07:15:25;;;;;;;29.00;12.93;;;;;;;-11.31;93.01;99806.34;5034125;28;20029;-62
2021/12/26 07:17:50;;;;;;;33.10;12.93;;;;;;;-11.30;92.88;99804.66;5019780;28;20137;-66
2021/12/26 07:20:16;;;;;;;27.30;12.93;;;;;;;-11.26;92.94;99806.41;5033573;28;20033;-63
2021/12/26 07:25:14;;;;;;;27.13;11.88;;;;;;;-10.97;94.48;99811.81;5058494;28;20090;-70
2021/12/26 07:27:40;;;;;;;29.20;12.82;;;;;;;-10.48;94.38;99812.34;5047848;28;20049;-68
2021/12/26 07:30:06;;;;;;;27.70;12.95;;;;;;;-10.70;90.78;99806.22;5051681;28;20048;-67
2021/12/26 07:32:32;;;;;;;22.02;12.05;;;;;;;-10.82;90.08;99813.69;5052491;28;20033;-68
2021/12/26 07:34:58;;;;;;;27.17;11.05;;;;;;;-10.90;90.48;99806.00;5047629;28;20036;-69
2021/12/26 07:37:26;;;;;;;25.92;11.07;;;;;;;-10.89;90.74;99810.22;5041844;28;20466;-69
2021/12/26 07:39:51;;;;;;;20.88;10.95;;;;;;;-10.90;90.33;99810.19;5044460;28;20095;-70
2021/12/26 07:42:17;;;;;;;22.85;11.95;;;;;;;-10.95;90.02;99811.81;5046647;28;20017;-70
2021/12/26 07:44:42;;;;;;;21.95;10.20;;;;;;;-10.95;90.46;99809.28;5023748;28;20495;-69
2021/12/26 07:47:08;;;;;;;27.88;12.10;;;;;;;-10.94;90.36;99806.78;5033171;28;20037;-69
2021/12/26 07:49:33;;;;;;;25.08;12.80;;;;;;;-10.94;89.86;99805.94;5028006;28;20056;-69
2021/12/26 07:51:59;;;;;;;33.00;16.83;;;;;;;-10.95;89.41;99801.69;5025705;28;20080;-68
2021/12/26 07:54:27;;;;;;;29.05;13.23;;;;;;;-10.91;90.01;99811.88;5041416;28;20096;-68
2021/12/26 07:56:53;;;;;;;22.50;11.77;;;;;;;-10.87;90.04;99806.00;5047322;28;20040;-70
2021/12/26 07:59:19;;;;;;;23.60;12.50;;;;;;;-10.82;90.15;99808.63;5023219;28;20063;-68
2021/12/26 08:01:46;;;;;;;26.58;11.20;;;;;;;-10.75;90.00;99815.44;5042647;28;20077;-68
2021/12/26 08:04:13;;;;;;;21.23;11.52;;;;;;;-10.67;89.52;99813.84;5036671;28;20107;-70
2021/12/26 08:06:39;;;;;;;22.30;11.60;;;;;;;-10.65;89.88;99806.25;5037358;28;20092;-69
2021/12/26 08:09:06;;;;;;;22.95;11.45;;;;;;;-10.62;88.83;99813.91;5043821;28;20100;-69
2021/12/26 08:11:32;;;;;;;21.30;10.60;;;;;;;-10.54;89.35;99805.53;5022538;28;20501;-70
2021/12/26 08:13:58;;;;;;;23.80;11.85;;;;;;;-10.48;87.86;99809.81;5042421;28;20037;-70
2021/12/26 08:16:26;;;;;;;21.30;10.30;;;;;;;-10.48;88.10;99807.28;5046542;28;20125;-71
2021/12/26 08:18:51;;;;;;;19.17;10.60;;;;;;;-10.39;88.28;99812.44;5040027;28;20025;-69
2021/12/26 08:21:16;;;;;;;22.73;11.25;;;;;;;-10.34;88.10;99809.97;5050003;28;20035;-71
2021/12/26 08:23:42;;;;;;;25.05;12.30;;;;;;;-10.31;87.88;99804.91;5029678;28;20028;-71
2021/12/26 08:26:07;;;;;;;22.88;11.20;;;;;;;-10.24;87.91;99807.47;5037006;28;20147;-69
2021/12/26 08:28:33;;;;;;;29.23;12.80;;;;;;;-10.14;87.57;99808.41;5043920;28;20633;-70
2021/12/26 08:30:59;;;;;;;24.85;12.40;;;;;;;-10.12;87.22;99806.75;5051984;28;20033;-67
2021/12/26 08:33:24;;;;;;;23.08;11.82;;;;;;;-10.08;87.41;99805.94;5048166;28;20079;-68
2021/12/26 08:35:50;;;;;;;24.92;11.50;;;;;;;-10.06;87.36;99805.94;5024018;28;20536;-69
2021/12/26 08:38:20;;;;;;;22.65;11.18;;;;;;;-10.07;87.13;99805.09;5043814;28;20033;-72
2021/12/26 08:40:46;;;;;;;25.58;11.10;;;;;;;-10.02;87.30;99805.13;5046908;28;20399;-70
2021/12/26 08:43:12;;;;;;;21.35;11.65;;;;;;;-10.00;87.20;99795.88;5036230;28;20065;-69
2021/12/26 08:45:37;;;;;;;27.70;12.95;;;;;;;-9.96;87.40;99797.59;5038414;28;20030;-70
2021/12/26 08:48:03;;;;;;;28.52;12.88;;;;;;;-9.93;87.45;99792.53;5043484;28;20418;-70
2021/12/26 08:50:29;;;;;;;22.90;11.07;;;;;;;-9.90;87.36;99795.09;5040484;28;20045;-68
2021/12/26 08:52:55;;;;;;;31.67;11.63;;;;;;;-9.80;87.19;99793.47;5024340;28;20036;-70
2021/12/26 08:55:23;;;;;;;24.02;12.23;;;;;;;-9.77;87.19;99801.09;5045067;28;20037;-68
2021/12/26 08:57:53;;;;;;;33.33;13.10;;;;;;;-9.68;87.52;99798.59;5041710;28;20036;-68
2021/12/26 09:00:21;;;;;;;27.92;13.52;;;;;;;-9.57;87.31;99807.13;5048765;28;20067;-68
2021/12/26 09:02:46;;;;;;;27.73;13.18;;;;;;;-9.50;87.18;99808.88;5045176;28;20558;-69
2021/12/26 09:05:12;;;;;;;25.02;12.38;;;;;;;-9.44;86.64;99797.94;5028966;28;20211;-68
2021/12/26 09:07:38;;;;;;;27.33;13.25;;;;;;;-9.34;86.76;99803.91;5023240;28;20040;-69
2021/12/26 09:10:05;;;;;;;25.77;12.52;;;;;;;-9.28;86.57;99801.41;5051216;28;20536;-70
2021/12/26 09:12:31;;;;;;;31.75;13.25;;;;;;;-9.27;86.71;99798.00;5030777;28;20040;-71
2021/12/26 09:14:56;;;;;;;26.52;12.88;;;;;;;-9.18;86.75;99797.22;5021507;28;20029;-73
2021/12/26 09:17:22;;;;;;;24.70;10.90;;;;;;;-9.17;86.23;99798.91;5024743;28;20136;-70
2021/12/26 09:19:47;;;;;;;19.77;10.88;;;;;;;-9.11;86.31;99801.50;5050637;28;20041;-72
2021/12/26 09:22:17;;;;;;;21.02;9.90;;;;;;;-9.07;86.05;99801.50;5042492;28;20171;-71
2021/12/26 09:24:45;;;;;;;17.55;9.52;;;;;;;-9.05;85.84;99802.38;5046761;28;20087;-69
2021/12/26 09:27:11;;;;;;;19.98;9.75;;;;;;;-9.02;85.57;99807.44;5039472;28;20034;-68
2021/12/26 09:29:36;;;;;;;19.05;10.90;;;;;;;-8.97;85.98;99806.59;5046785;28;20521;-68
2021/12/26 09:32:02;;;;;;;21.85;10.63;;;;;;;-8.98;85.24;99810.00;5042583;28;20052;-71
2021/12/26 09:34:30;;;;;;;23.98;11.15;;;;;;;-8.92;85.59;99813.41;5041920;28;20086;-70
2021/12/26 09:36:57;;;;;;;24.10;11.32;;;;;;;-8.86;85.55;99815.13;5039801;28;20557;-71
2021/12/26 09:39:23;;;;;;;21.85;10.93;;;;;;;-8.82;85.28;99819.38;5032622;28;20474;-72
2021/12/26 09:41:51;;;;;;;21.35;11.55;;;;;;;-8.74;85.40;99820.25;5042877;28;20033;-70
2021/12/26 09:44:18;;;;;;;19.73;10.95;;;;;;;-8.66;84.91;99815.19;5049761;28;20055;-71
2021/12/26 09:46:43;;;;;;;24.08;11.15;;;;;;;-8.61;84.58;99821.13;5030070;28;20063;-69
2021/12/26 09:49:09;;;;;;;19.23;10.43;;;;;;;-8.55;84.28;99819.47;5029898;28;20029;-71
2021/12/26 09:51:35;;;;;;;20.42;11.07;;;;;;;-8.47;83.76;99824.56;5023571;28;20029;-70
2021/12/26 09:54:01;;;;;;;30.13;11.07;;;;;;;-8.41;84.15;99818.66;5040626;28;20103;-69
2021/12/26 09:56:27;;;;;;;24.63;10.85;;;;;;;-8.32;84.16;99821.19;5048718;28;20037;-70
2021/12/26 09:59:08;;;;;;;23.88;11.00;;;;;;;-8.24;84.40;99816.09;5020244;28;20064;-69
2021/12/26 10:01:38;;;;;;;27.05;11.77;;;;;;;-8.13;84.02;99812.72;5037544;28;20034;-70
2021/12/26 10:04:28;;;;;;;30.35;13.23;;;;;;;-8.07;83.88;99802.56;5048702;28;20075;-69
2021/12/26 10:07:06;;;;;;;19.08;9.75;;;;;;;-7.94;83.43;99802.56;5042314;28;20041;-71
2021/12/26 10:09:36;;;;;;;22.50;11.80;;;;;;;-7.85;83.29;99797.47;5036723;28;20128;-68
2021/12/26 10:12:01;;;;;;;;;;;;;;;-7.80;83.13;99796.63;5034426;28;20116;-70
2021/12/26 10:14:33;;;;;;;20.35;10.82;;;;;;;-7.72;82.88;99791.50;5043954;28;19996;-68
2021/12/26 10:17:02;;;;;;;24.52;11.23;;;;;;;-7.68;83.00;99787.28;5047430;28;20048;-68
2021/12/26 10:19:32;;;;;;;29.92;14.38;;;;;;;-7.66;82.64;99788.13;5018957;28;20674;-70
2021/12/26 10:22:00;;;;;;;30.38;14.75;;;;;;;-7.57;83.51;99783.84;5040636;28;20028;-68
2021/12/26 10:24:31;;;;;;;31.53;15.33;;;;;;;-7.48;83.53;99774.53;5020584;28;20021;-69
2021/12/26 10:27:04;;;;;;;25.95;14.25;;;;;;;-7.41;83.35;99774.50;5022983;28;20045;-68
2021/12/26 10:29:38;;;;;;;31.17;15.13;;;;;;;-7.35;83.25;99768.53;5028300;28;20032;-72
2021/12/26 10:32:07;;;;;;;39.05;18.85;;;;;;;-7.28;83.41;99769.38;5048126;28;20116;-71
2021/12/26 10:34:40;;;;;;;50.97;21.73;;;;;;;-7.26;81.84;99768.53;5048128;28;20036;-70
2021/12/26 10:37:16;;;;;;;27.75;14.85;;;;;;;-7.21;81.83;99756.59;5039120;28;20032;-71
2021/12/26 10:39:47;;;;;;;29.48;13.73;;;;;;;-7.16;81.98;99754.88;5040467;28;20052;-69
2021/12/26 10:42:17;;;;;;;26.98;13.57;;;;;;;-7.03;83.35;99750.59;5019615;28;20049;-72
2021/12/26 10:44:45;;;;;;;27.70;12.90;;;;;;;-6.93;82.62;99743.78;5043169;28;20124;-70
2021/12/26 10:47:23;;;;;;;23.33;12.68;;;;;;;-6.88;82.55;99734.41;5040639;28;20530;-73
2021/12/26 10:49:57;;;;;;;26.13;13.30;;;;;;;-6.82;82.17;99742.84;5042559;28;20045;-72
2021/12/26 10:52:33;;;;;;;26.40;14.02;;;;;;;-6.78;81.90;99741.13;5041901;28;20039;-71
2021/12/26 10:55:09;;;;;;;26.67;13.13;;;;;;;-6.63;82.51;99751.25;5030014;28;20029;-71
2021/12/26 10:57:41;;;;;;;23.80;12.10;;;;;;;-6.53;81.49;99746.06;5034322;28;20067;-72
2021/12/26 11:00:12;;;;;;;22.48;12.30;;;;;;;-6.47;81.16;99746.88;5023605;28;20386;-72
2021/12/26 11:02:41;;;;;;;28.70;13.50;;;;;;;-6.41;80.98;99746.84;5037547;28;20427;-71
2021/12/26 11:05:19;;;;;;;30.73;12.63;;;;;;;-6.29;81.15;99745.91;5014586;28;20034;-70
2021/12/26 11:07:58;;;;;;;27.98;12.32;;;;;;;-6.17;80.90;99743.25;5044832;28;20029;-71
2021/12/26 11:10:32;;;;;;;28.17;12.15;;;;;;;-6.04;79.62;99733.81;5039240;28;20037;-72
2021/12/26 11:13:00;;;;;;;25.95;12.82;;;;;;;-5.93;79.68;99741.34;5037174;28;20033;-71
2021/12/26 11:15:32;;;;;;;21.33;12.57;;;;;;;-5.80;79.91;99736.97;5041499;28;20040;-72
2021/12/26 11:18:01;;;;;;;25.80;11.85;;;;;;;-5.67;80.33;99733.44;5048952;28;20037;-73